createdAt,value
2016-12-02T00:00:24.452Z,937.34
2016-12-02T00:00:52.162Z,937.36
2016-12-02T00:01:19.835Z,937.36
2016-12-02T00:01:47.634Z,937.35
2016-12-02T00:02:15.320Z,937.32
2016-12-02T00:02:43.099Z,937.32
2016-12-02T00:03:10.836Z,937.34
2016-12-02T00:03:38.749Z,937.31
2016-12-02T00:04:06.434Z,937.29
2016-12-02T00:04:34.216Z,937.24
2016-12-02T00:05:01.926Z,937.2
2016-12-02T00:05:29.722Z,937.34
2016-12-02T00:05:57.588Z,937.37
2016-12-02T00:06:25.267Z,937.39
2016-12-02T00:06:53.042Z,937.39
2016-12-02T00:07:20.768Z,937.42
2016-12-02T00:07:48.477Z,937.38
2016-12-02T00:08:16.161Z,937.41
2016-12-02T00:08:43.867Z,937.46
2016-12-02T00:09:11.656Z,937.32
2016-12-02T00:09:39.332Z,937.46
2016-12-02T00:10:07.161Z,937.5
2016-12-02T00:10:34.885Z,937.46
2016-12-02T00:11:02.669Z,937.46
2016-12-02T00:11:30.362Z,937.49
2016-12-02T00:11:58.072Z,937.47
2016-12-02T00:12:25.762Z,937.45
2016-12-02T00:12:53.441Z,937.53
2016-12-02T00:13:21.126Z,937.51
2016-12-02T00:13:48.985Z,937.53
2016-12-02T00:14:16.901Z,937.52
2016-12-02T00:14:44.619Z,937.55
2016-12-02T00:15:12.369Z,937.56
2016-12-02T00:15:40.164Z,937.58
2016-12-02T00:16:07.951Z,937.59
2016-12-02T00:16:35.758Z,937.59
2016-12-02T00:17:03.553Z,937.59
2016-12-02T00:17:31.233Z,937.62
2016-12-02T00:17:59.069Z,937.62
2016-12-02T00:18:26.826Z,937.6
2016-12-02T00:18:54.634Z,937.62
2016-12-02T00:19:22.340Z,937.64
2016-12-02T00:19:50.234Z,937.62
2016-12-02T00:20:17.986Z,937.62
2016-12-02T00:20:45.675Z,937.61
2016-12-02T00:21:13.551Z,937.64
2016-12-02T00:21:41.223Z,937.65
2016-12-02T00:22:09.306Z,937.63
2016-12-02T00:22:36.974Z,937.62
2016-12-02T00:23:04.767Z,937.61
2016-12-02T00:23:32.470Z,937.6
2016-12-02T00:24:00.166Z,937.63
2016-12-02T00:24:27.958Z,937.64
2016-12-02T00:24:55.649Z,937.65
2016-12-02T00:25:23.530Z,937.61
2016-12-02T00:25:51.203Z,937.67
2016-12-02T00:26:18.894Z,937.67
2016-12-02T00:26:46.697Z,937.64
2016-12-02T00:27:14.380Z,937.59
2016-12-02T00:27:42.101Z,937.65
2016-12-02T00:28:09.796Z,937.65
2016-12-02T00:28:37.608Z,937.6
2016-12-02T00:29:05.339Z,937.62
2016-12-02T00:29:33.040Z,937.59
2016-12-02T00:30:00.823Z,937.59
2016-12-02T00:30:28.552Z,937.61
2016-12-02T00:31:10.836Z,937.53
2016-12-02T00:31:38.546Z,937.55
2016-12-02T00:32:06.231Z,937.54
2016-12-02T00:32:34.032Z,937.53
2016-12-02T00:33:01.718Z,937.54
2016-12-02T00:33:29.385Z,937.52
2016-12-02T00:33:57.082Z,937.5
2016-12-02T00:34:24.825Z,937.51
2016-12-02T00:34:52.524Z,937.52
2016-12-02T00:35:20.431Z,937.49
2016-12-02T00:35:48.247Z,937.52
2016-12-02T00:36:15.964Z,937.52
2016-12-02T00:36:43.675Z,937.48
2016-12-02T00:37:11.359Z,937.48
2016-12-02T00:37:39.088Z,937.53
2016-12-02T00:38:06.803Z,937.53
2016-12-02T00:38:34.471Z,937.56
2016-12-02T00:39:02.288Z,937.55
2016-12-02T00:39:29.984Z,937.53
2016-12-02T00:39:57.840Z,937.52
2016-12-02T00:40:25.536Z,937.56
2016-12-02T00:40:53.270Z,937.56
2016-12-02T00:41:20.954Z,937.48
2016-12-02T00:41:48.631Z,937.56
2016-12-02T00:42:16.300Z,937.52
2016-12-02T00:42:43.988Z,937.52
2016-12-02T00:43:11.752Z,937.54
2016-12-02T00:43:39.416Z,937.53
2016-12-02T00:44:07.109Z,937.57
2016-12-02T00:44:34.884Z,937.55
2016-12-02T00:45:02.560Z,937.52
2016-12-02T00:45:30.232Z,937.56
2016-12-02T00:45:57.930Z,937.58
2016-12-02T00:46:25.604Z,937.58
2016-12-02T00:46:53.301Z,937.55
2016-12-02T00:47:20.971Z,937.56
2016-12-02T00:47:48.674Z,937.55
2016-12-02T00:48:16.484Z,937.6
2016-12-02T00:48:44.199Z,937.54
2016-12-02T00:49:11.868Z,937.59
2016-12-02T00:49:39.577Z,937.57
2016-12-02T00:50:07.269Z,937.56
2016-12-02T00:50:35.041Z,937.61
2016-12-02T00:51:02.827Z,937.55
2016-12-02T00:51:30.510Z,937.56
2016-12-02T00:51:58.300Z,937.61
2016-12-02T00:52:26.008Z,937.61
2016-12-02T00:52:53.667Z,937.62
2016-12-02T00:53:21.352Z,937.59
2016-12-02T00:53:49.056Z,937.6
2016-12-02T00:54:16.717Z,937.61
2016-12-02T00:54:44.439Z,937.57
2016-12-02T00:55:12.210Z,937.63
2016-12-02T00:55:39.940Z,937.62
2016-12-02T00:56:07.615Z,937.62
2016-12-02T00:56:35.319Z,937.64
2016-12-02T00:57:03.144Z,937.62
2016-12-02T00:57:30.870Z,937.61
2016-12-02T00:57:58.547Z,937.65
2016-12-02T00:58:26.231Z,937.64
2016-12-02T00:58:53.920Z,937.67
2016-12-02T00:59:21.588Z,937.67
2016-12-02T00:59:49.313Z,937.64
2016-12-02T01:00:16.996Z,937.61
2016-12-02T01:00:44.715Z,937.65
2016-12-02T01:01:12.408Z,937.66
2016-12-02T01:01:40.078Z,937.67
2016-12-02T01:02:07.764Z,937.66
2016-12-02T01:02:35.473Z,937.67
2016-12-02T01:03:03.178Z,937.66
2016-12-02T01:03:30.974Z,937.65
2016-12-02T01:03:58.663Z,937.64
2016-12-02T01:04:26.346Z,937.66
2016-12-02T01:04:54.032Z,937.65
2016-12-02T01:05:21.739Z,937.64
2016-12-02T01:05:49.518Z,937.61
2016-12-02T01:06:17.303Z,937.57
2016-12-02T01:06:44.985Z,937.62
2016-12-02T01:07:12.666Z,937.62
2016-12-02T01:07:40.419Z,937.63
2016-12-02T01:08:08.134Z,937.64
2016-12-02T01:08:35.927Z,937.62
2016-12-02T01:09:03.612Z,937.64
2016-12-02T01:09:31.308Z,937.61
2016-12-02T01:09:59.053Z,937.63
2016-12-02T01:10:26.718Z,937.62
2016-12-02T01:10:54.413Z,937.58
2016-12-02T01:11:22.097Z,937.63
2016-12-02T01:11:49.817Z,937.59
2016-12-02T01:12:17.649Z,937.61
2016-12-02T01:12:45.343Z,937.6
2016-12-02T01:13:13.147Z,937.63
2016-12-02T01:13:40.823Z,937.58
2016-12-02T01:14:08.519Z,937.62
2016-12-02T01:14:36.190Z,937.59
2016-12-02T01:15:03.907Z,937.62
2016-12-02T01:15:31.578Z,937.57
2016-12-02T01:15:59.279Z,937.53
2016-12-02T01:16:26.978Z,937.57
2016-12-02T01:16:54.705Z,937.57
2016-12-02T01:17:22.383Z,937.57
2016-12-02T01:17:50.186Z,937.55
2016-12-02T01:18:17.862Z,937.53
2016-12-02T01:18:45.560Z,937.57
2016-12-02T01:19:13.260Z,937.56
2016-12-02T01:19:40.964Z,937.56
2016-12-02T01:20:08.651Z,937.47
2016-12-02T01:20:36.472Z,937.52
2016-12-02T01:21:04.180Z,937.52
2016-12-02T01:21:31.993Z,937.52
2016-12-02T01:21:59.700Z,937.54
2016-12-02T01:22:27.416Z,937.54
2016-12-02T01:22:55.197Z,937.5
2016-12-02T01:23:22.890Z,937.54
2016-12-02T01:23:50.624Z,937.44
2016-12-02T01:24:18.307Z,937.53
2016-12-02T01:24:46.018Z,937.5
2016-12-02T01:25:13.706Z,937.53
2016-12-02T01:25:41.367Z,937.54
2016-12-02T01:26:09.040Z,937.54
2016-12-02T01:26:36.863Z,937.52
2016-12-02T01:27:04.543Z,937.46
2016-12-02T01:27:32.200Z,937.5
2016-12-02T01:27:59.884Z,937.5
2016-12-02T01:28:27.566Z,937.49
2016-12-02T01:28:55.256Z,937.49
2016-12-02T01:29:23.121Z,937.47
2016-12-02T01:29:50.797Z,937.46
2016-12-02T01:30:18.521Z,937.49
2016-12-02T01:30:46.230Z,937.47
2016-12-02T01:31:13.964Z,937.44
2016-12-02T01:31:41.719Z,937.46
2016-12-02T01:32:09.590Z,937.44
2016-12-02T01:32:37.291Z,937.43
2016-12-02T01:33:04.957Z,937.45
2016-12-02T01:33:32.639Z,937.41
2016-12-02T01:34:00.327Z,937.39
2016-12-02T01:34:28.101Z,937.41
2016-12-02T01:34:55.800Z,937.39
2016-12-02T01:35:23.467Z,937.42
2016-12-02T01:35:51.130Z,937.41
2016-12-02T01:36:18.862Z,937.37
2016-12-02T01:36:46.656Z,937.41
2016-12-02T01:37:14.347Z,937.42
2016-12-02T01:37:42.030Z,937.42
2016-12-02T01:38:09.718Z,937.39
2016-12-02T01:38:37.454Z,937.38
2016-12-02T01:39:05.168Z,937.37
2016-12-02T01:39:32.842Z,937.38
2016-12-02T01:40:00.532Z,937.38
2016-12-02T01:40:28.242Z,937.41
2016-12-02T01:40:55.965Z,937.39
2016-12-02T01:41:23.635Z,937.37
2016-12-02T01:41:51.329Z,937.4
2016-12-02T01:42:19.006Z,937.34
2016-12-02T01:42:46.730Z,937.36
2016-12-02T01:43:14.422Z,937.38
2016-12-02T01:43:42.120Z,937.39
2016-12-02T01:44:09.794Z,937.34
2016-12-02T01:44:37.479Z,937.36
2016-12-02T01:45:05.177Z,937.34
2016-12-02T01:45:32.876Z,937.35
2016-12-02T01:46:00.651Z,937.37
2016-12-02T01:46:28.650Z,937.29
2016-12-02T01:46:56.330Z,937.32
2016-12-02T01:47:24.039Z,937.3
2016-12-02T01:47:51.738Z,937.31
2016-12-02T01:48:19.436Z,937.31
2016-12-02T01:48:47.132Z,937.31
2016-12-02T01:49:14.804Z,937.34
2016-12-02T01:49:42.493Z,937.33
2016-12-02T01:50:10.157Z,937.33
2016-12-02T01:50:38.038Z,937.3
2016-12-02T01:51:05.766Z,937.29
2016-12-02T01:51:33.463Z,937.32
2016-12-02T01:52:01.152Z,937.27
2016-12-02T01:52:28.830Z,937.3
2016-12-02T01:52:56.607Z,937.29
2016-12-02T01:53:24.283Z,937.29
2016-12-02T01:53:51.985Z,937.29
2016-12-02T01:54:19.681Z,937.24
2016-12-02T01:54:47.450Z,937.27
2016-12-02T01:55:15.397Z,937.28
2016-12-02T01:55:43.065Z,937.27
2016-12-02T01:56:10.764Z,937.25
2016-12-02T01:56:38.435Z,937.23
2016-12-02T01:57:06.099Z,937.24
2016-12-02T01:57:33.819Z,937.2
2016-12-02T01:58:01.591Z,937.23
2016-12-02T01:58:29.286Z,937.22
2016-12-02T01:58:56.967Z,937.23
2016-12-02T01:59:24.649Z,937.2
2016-12-02T01:59:52.443Z,937.16
2016-12-02T02:00:20.181Z,937.21
2016-12-02T02:00:47.881Z,937.18
2016-12-02T02:01:15.662Z,937.2
2016-12-02T02:01:43.373Z,937.15
2016-12-02T02:02:11.091Z,937.15
2016-12-02T02:02:38.796Z,937.16
2016-12-02T02:03:06.483Z,937.16
2016-12-02T02:03:34.200Z,937.16
2016-12-02T02:04:01.894Z,937.17
2016-12-02T02:04:29.576Z,937.16
2016-12-02T02:04:57.266Z,937.15
2016-12-02T02:05:24.988Z,937.16
2016-12-02T02:05:52.700Z,937.18
2016-12-02T02:06:20.360Z,937.12
2016-12-02T02:06:48.043Z,937.15
2016-12-02T02:07:15.736Z,937.12
2016-12-02T02:07:43.524Z,937.16
2016-12-02T02:08:11.242Z,937.13
2016-12-02T02:08:38.952Z,937.1
2016-12-02T02:09:06.638Z,937.11
2016-12-02T02:09:34.367Z,937.13
2016-12-02T02:10:02.166Z,937.09
2016-12-02T02:10:29.853Z,937.13
2016-12-02T02:10:57.546Z,937.06
2016-12-02T02:11:25.341Z,937.06
2016-12-02T02:11:53.047Z,937.05
2016-12-02T02:12:20.755Z,937.04
2016-12-02T02:12:48.457Z,937.02
2016-12-02T02:13:16.146Z,937.02
2016-12-02T02:13:43.853Z,937.03
2016-12-02T02:14:11.557Z,937.02
2016-12-02T02:14:39.250Z,937.01
2016-12-02T02:15:06.950Z,937.03
2016-12-02T02:15:34.634Z,937.03
2016-12-02T02:16:02.302Z,937
2016-12-02T02:16:29.988Z,936.98
2016-12-02T02:16:57.660Z,937
2016-12-02T02:17:25.355Z,936.95
2016-12-02T02:17:53.069Z,937.01
2016-12-02T02:18:20.749Z,936.99
2016-12-02T02:18:48.427Z,936.98
2016-12-02T02:19:16.132Z,937.02
2016-12-02T02:19:43.815Z,936.97
2016-12-02T02:20:11.473Z,936.94
2016-12-02T02:20:39.264Z,937
2016-12-02T02:21:07.014Z,936.91
2016-12-02T02:21:34.726Z,937.01
2016-12-02T02:22:02.449Z,936.95
2016-12-02T02:22:30.137Z,936.92
2016-12-02T02:22:57.820Z,936.95
2016-12-02T02:23:25.506Z,937.02
2016-12-02T02:23:53.199Z,937
2016-12-02T02:24:20.904Z,936.99
2016-12-02T02:24:48.675Z,937
2016-12-02T02:25:16.445Z,937.03
2016-12-02T02:25:44.269Z,936.98
2016-12-02T02:26:11.953Z,936.94
2016-12-02T02:26:39.625Z,936.99
2016-12-02T02:27:07.309Z,936.97
2016-12-02T02:27:35.012Z,936.97
2016-12-02T02:28:02.695Z,936.96
2016-12-02T02:28:30.387Z,936.95
2016-12-02T02:28:58.107Z,937
2016-12-02T02:29:25.821Z,936.98
2016-12-02T02:29:53.519Z,936.99
2016-12-02T02:30:21.226Z,936.96
2016-12-02T02:30:49.036Z,937.01
2016-12-02T02:31:16.746Z,936.97
2016-12-02T02:31:44.427Z,936.98
2016-12-02T02:32:12.132Z,936.97
2016-12-02T02:32:39.847Z,936.99
2016-12-02T02:33:07.562Z,936.99
2016-12-02T02:33:35.283Z,936.99
2016-12-02T02:34:03.071Z,936.98
2016-12-02T02:34:30.792Z,936.99
2016-12-02T02:34:58.479Z,936.94
2016-12-02T02:35:26.179Z,936.98
2016-12-02T02:35:53.865Z,936.96
2016-12-02T02:36:21.554Z,936.95
2016-12-02T02:36:49.269Z,936.95
2016-12-02T02:37:17.102Z,936.94
2016-12-02T02:37:44.813Z,936.97
2016-12-02T02:38:12.489Z,936.94
2016-12-02T02:38:40.171Z,936.94
2016-12-02T02:39:07.849Z,936.89
2016-12-02T02:39:35.537Z,936.89
2016-12-02T02:40:03.209Z,936.9
2016-12-02T02:40:30.911Z,936.89
2016-12-02T02:40:58.630Z,936.92
2016-12-02T02:41:26.430Z,936.93
2016-12-02T02:41:54.151Z,936.9
2016-12-02T02:42:21.821Z,936.9
2016-12-02T02:42:49.720Z,936.89
2016-12-02T02:43:17.396Z,936.91
2016-12-02T02:43:45.115Z,936.94
2016-12-02T02:44:12.926Z,936.92
2016-12-02T02:44:40.592Z,936.87
2016-12-02T02:45:08.407Z,936.86
2016-12-02T02:45:36.123Z,936.88
2016-12-02T02:46:03.814Z,936.86
2016-12-02T02:46:31.503Z,936.86
2016-12-02T02:46:59.221Z,936.86
2016-12-02T02:47:26.933Z,936.88
2016-12-02T02:47:54.631Z,936.89
2016-12-02T02:48:22.317Z,936.9
2016-12-02T02:48:50.039Z,936.87
2016-12-02T02:49:17.727Z,936.85
2016-12-02T02:49:45.415Z,936.88
2016-12-02T02:50:13.110Z,936.87
2016-12-02T02:50:40.821Z,936.84
2016-12-02T02:51:08.497Z,936.86
2016-12-02T02:51:36.221Z,936.86
2016-12-02T02:52:04.007Z,936.87
2016-12-02T02:52:31.683Z,936.84
2016-12-02T02:52:59.370Z,936.82
2016-12-02T02:53:27.101Z,936.82
2016-12-02T02:53:54.758Z,936.85
2016-12-02T02:54:22.443Z,936.82
2016-12-02T02:54:50.116Z,936.79
2016-12-02T02:55:17.818Z,936.82
2016-12-02T02:55:45.498Z,936.78
2016-12-02T02:56:13.175Z,936.84
2016-12-02T02:56:40.868Z,936.83
2016-12-02T02:57:08.576Z,936.82
2016-12-02T02:57:36.317Z,936.82
2016-12-02T02:58:03.981Z,936.82
2016-12-02T02:58:32.219Z,936.82
2016-12-02T02:58:59.899Z,936.79
2016-12-02T02:59:27.687Z,936.78
2016-12-02T02:59:55.497Z,936.83
2016-12-02T03:00:23.295Z,936.81
2016-12-02T03:00:52.982Z,936.83
2016-12-02T03:02:02.979Z,936.85
2016-12-02T03:02:30.672Z,936.8
2016-12-02T03:02:58.367Z,936.8
2016-12-02T03:03:26.132Z,936.84
2016-12-02T03:03:53.811Z,936.83
2016-12-02T03:04:21.505Z,936.81
2016-12-02T03:04:49.194Z,936.79
2016-12-02T03:05:16.978Z,936.82
2016-12-02T03:05:44.867Z,936.83
2016-12-02T03:06:12.573Z,936.82
2016-12-02T03:06:40.249Z,936.86
2016-12-02T03:07:07.914Z,936.83
2016-12-02T03:07:35.586Z,936.8
2016-12-02T03:08:03.246Z,936.8
2016-12-02T03:08:30.912Z,936.8
2016-12-02T03:08:58.629Z,936.8
2016-12-02T03:09:26.319Z,936.79
2016-12-02T03:09:54.020Z,936.77
2016-12-02T03:10:21.703Z,936.78
2016-12-02T03:10:49.381Z,936.72
2016-12-02T03:11:17.058Z,936.75
2016-12-02T03:11:44.768Z,936.73
2016-12-02T03:12:12.487Z,936.72
2016-12-02T03:12:40.156Z,936.74
2016-12-02T03:13:07.816Z,936.66
2016-12-02T03:13:35.517Z,936.71
2016-12-02T03:14:03.229Z,936.72
2016-12-02T03:14:30.917Z,936.72
2016-12-02T03:14:58.579Z,936.66
2016-12-02T03:15:26.287Z,936.69
2016-12-02T03:15:53.978Z,936.66
2016-12-02T03:16:21.820Z,936.66
2016-12-02T03:16:49.541Z,936.64
2016-12-02T03:17:17.245Z,936.65
2016-12-02T03:17:44.921Z,936.62
2016-12-02T03:18:12.614Z,936.58
2016-12-02T03:18:40.335Z,936.55
2016-12-02T03:19:08.040Z,936.57
2016-12-02T03:19:35.726Z,936.61
2016-12-02T03:20:03.445Z,936.58
2016-12-02T03:20:31.232Z,936.59
2016-12-02T03:20:58.924Z,936.55
2016-12-02T03:21:26.597Z,936.49
2016-12-02T03:21:54.293Z,936.53
2016-12-02T03:22:21.993Z,936.49
2016-12-02T03:22:49.673Z,936.52
2016-12-02T03:23:17.357Z,936.52
2016-12-02T03:23:45.050Z,936.53
2016-12-02T03:24:12.748Z,936.49
2016-12-02T03:24:40.457Z,936.48
2016-12-02T03:25:08.222Z,936.47
2016-12-02T03:25:35.916Z,936.48
2016-12-02T03:26:03.602Z,936.47
2016-12-02T03:26:31.331Z,936.45
2016-12-02T03:26:59.018Z,936.44
2016-12-02T03:27:26.704Z,936.46
2016-12-02T03:27:54.417Z,936.47
2016-12-02T03:28:22.128Z,936.43
2016-12-02T03:28:49.892Z,936.44
2016-12-02T03:29:17.592Z,936.41
2016-12-02T03:29:45.276Z,936.46
2016-12-02T03:30:13.052Z,936.42
2016-12-02T03:30:40.720Z,936.42
2016-12-02T03:31:08.539Z,936.39
2016-12-02T03:31:36.202Z,936.41
2016-12-02T03:32:03.897Z,936.42
2016-12-02T03:32:31.601Z,936.39
2016-12-02T03:32:59.276Z,936.37
2016-12-02T03:33:26.958Z,936.34
2016-12-02T03:33:54.653Z,936.4
2016-12-02T03:34:22.315Z,936.34
2016-12-02T03:34:50.026Z,936.34
2016-12-02T03:35:17.912Z,936.35
2016-12-02T03:35:45.594Z,936.36
2016-12-02T03:36:13.268Z,936.35
2016-12-02T03:36:40.962Z,936.34
2016-12-02T03:37:08.640Z,936.3
2016-12-02T03:37:36.311Z,936.28
2016-12-02T03:38:04.005Z,936.26
2016-12-02T03:38:31.677Z,936.26
2016-12-02T03:38:59.400Z,936.26
2016-12-02T03:39:27.091Z,936.23
2016-12-02T03:39:54.861Z,936.24
2016-12-02T03:40:22.733Z,936.2
2016-12-02T03:40:50.421Z,936.22
2016-12-02T03:41:18.124Z,936.2
2016-12-02T03:41:45.818Z,936.26
2016-12-02T03:42:13.588Z,936.21
2016-12-02T03:42:41.410Z,936.22
2016-12-02T03:43:09.145Z,936.24
2016-12-02T03:43:36.806Z,936.2
2016-12-02T03:44:04.486Z,936.22
2016-12-02T03:44:32.168Z,936.16
2016-12-02T03:44:59.878Z,936.17
2016-12-02T03:45:27.577Z,936.18
2016-12-02T03:45:55.267Z,936.15
2016-12-02T03:46:22.945Z,936.13
2016-12-02T03:46:50.649Z,936.14
2016-12-02T03:47:18.320Z,936.14
2016-12-02T03:47:46.016Z,936.14
2016-12-02T03:48:13.707Z,936.08
2016-12-02T03:48:41.485Z,936.09
2016-12-02T03:49:09.187Z,936.14
2016-12-02T03:49:36.887Z,936.13
2016-12-02T03:50:04.597Z,936.09
2016-12-02T03:50:32.288Z,936.09
2016-12-02T03:51:00.066Z,936.1
2016-12-02T03:51:27.745Z,936.1
2016-12-02T03:51:55.428Z,936.09
2016-12-02T03:52:23.194Z,936.11
2016-12-02T03:52:50.972Z,936.06
2016-12-02T03:53:18.684Z,936.05
2016-12-02T03:53:46.381Z,936.08
2016-12-02T03:54:14.077Z,936.05
2016-12-02T03:54:41.800Z,936.05
2016-12-02T03:55:09.504Z,936.06
2016-12-02T03:55:37.181Z,936.06
2016-12-02T03:56:04.892Z,936.05
2016-12-02T03:56:32.566Z,936.07
2016-12-02T03:57:00.241Z,936.09
2016-12-02T03:57:27.917Z,936.08
2016-12-02T03:57:55.611Z,936.09
2016-12-02T03:58:23.308Z,936.09
2016-12-02T03:58:50.989Z,936.12
2016-12-02T03:59:18.679Z,936.1
2016-12-02T03:59:46.384Z,936.14
2016-12-02T04:00:14.193Z,936.15
2016-12-02T04:00:41.867Z,936.12
2016-12-02T04:01:09.537Z,936.16
2016-12-02T04:01:37.235Z,936.15
2016-12-02T04:02:04.970Z,936.13
2016-12-02T04:02:32.750Z,936.12
2016-12-02T04:03:00.438Z,936.11
2016-12-02T04:03:28.135Z,936.11
2016-12-02T04:03:55.860Z,936.12
2016-12-02T04:04:23.639Z,936.17
2016-12-02T04:04:51.356Z,936.17
2016-12-02T04:05:19.026Z,936.14
2016-12-02T04:05:46.716Z,936.13
2016-12-02T04:06:14.424Z,936.1
2016-12-02T04:06:42.116Z,936.11
2016-12-02T04:07:09.827Z,936.15
2016-12-02T04:07:37.612Z,936.11
2016-12-02T04:08:05.405Z,936.12
2016-12-02T04:08:33.068Z,936.11
2016-12-02T04:09:00.783Z,936.11
2016-12-02T04:09:28.476Z,936.09
2016-12-02T04:09:56.186Z,936.06
2016-12-02T04:10:23.972Z,936.11
2016-12-02T04:10:51.662Z,936.1
2016-12-02T04:11:19.335Z,936.06
2016-12-02T04:11:47.044Z,936.06
2016-12-02T04:12:14.721Z,936.02
2016-12-02T04:12:42.384Z,936.01
2016-12-02T04:13:10.108Z,936
2016-12-02T04:13:37.785Z,936
2016-12-02T04:14:05.493Z,936.02
2016-12-02T04:14:33.160Z,935.99
2016-12-02T04:15:00.853Z,935.99
2016-12-02T04:15:28.535Z,936.01
2016-12-02T04:15:56.234Z,936.03
2016-12-02T04:16:23.892Z,936.03
2016-12-02T04:16:51.629Z,936.02
2016-12-02T04:17:19.329Z,935.99
2016-12-02T04:17:47.247Z,936
2016-12-02T04:18:14.958Z,935.94
2016-12-02T04:18:42.638Z,935.96
2016-12-02T04:19:10.342Z,935.98
2016-12-02T04:19:38.016Z,935.98
2016-12-02T04:20:05.707Z,935.97
2016-12-02T04:20:33.391Z,935.93
2016-12-02T04:21:01.111Z,935.97
2016-12-02T04:21:28.786Z,935.96
2016-12-02T04:21:56.480Z,935.97
2016-12-02T04:22:24.249Z,935.95
2016-12-02T04:22:51.950Z,935.95
2016-12-02T04:23:19.661Z,935.92
2016-12-02T04:23:47.396Z,935.92
2016-12-02T04:24:15.082Z,935.95
2016-12-02T04:24:42.787Z,935.93
2016-12-02T04:25:10.587Z,935.89
2016-12-02T04:25:38.280Z,935.95
2016-12-02T04:26:05.973Z,935.89
2016-12-02T04:26:33.654Z,935.93
2016-12-02T04:27:01.332Z,935.89
2016-12-02T04:27:29.024Z,935.9
2016-12-02T04:27:56.751Z,935.9
2016-12-02T04:28:24.456Z,935.9
2016-12-02T04:28:52.170Z,935.88
2016-12-02T04:29:19.903Z,935.87
2016-12-02T04:29:47.587Z,935.86
2016-12-02T04:30:15.291Z,935.87
2016-12-02T04:30:43.008Z,935.87
2016-12-02T04:31:10.687Z,935.85
2016-12-02T04:31:38.368Z,935.89
2016-12-02T04:32:06.040Z,935.89
2016-12-02T04:32:33.743Z,935.84
2016-12-02T04:33:01.620Z,935.91
2016-12-02T04:33:29.289Z,935.89
2016-12-02T04:33:57.004Z,935.93
2016-12-02T04:34:24.687Z,935.94
2016-12-02T04:34:52.415Z,935.9
2016-12-02T04:35:20.099Z,935.94
2016-12-02T04:35:47.784Z,935.92
2016-12-02T04:36:15.504Z,935.91
2016-12-02T04:36:43.202Z,935.95
2016-12-02T04:37:10.878Z,935.93
2016-12-02T04:37:38.561Z,935.92
2016-12-02T04:38:06.276Z,935.94
2016-12-02T04:38:34.042Z,935.96
2016-12-02T04:39:01.735Z,935.94
2016-12-02T04:39:29.512Z,935.96
2016-12-02T04:39:57.220Z,935.92
2016-12-02T04:40:24.880Z,935.91
2016-12-02T04:40:52.560Z,935.92
2016-12-02T04:41:20.265Z,935.93
2016-12-02T04:41:47.974Z,935.93
2016-12-02T04:42:15.678Z,935.91
2016-12-02T04:42:43.410Z,935.89
2016-12-02T04:43:11.086Z,935.86
2016-12-02T04:43:38.769Z,935.87
2016-12-02T04:44:06.529Z,935.86
2016-12-02T04:44:34.244Z,935.85
2016-12-02T04:45:01.943Z,935.86
2016-12-02T04:45:29.740Z,935.85
2016-12-02T04:45:57.520Z,935.85
2016-12-02T04:46:25.220Z,935.82
2016-12-02T04:46:52.907Z,935.85
2016-12-02T04:47:20.689Z,935.83
2016-12-02T04:47:48.446Z,935.86
2016-12-02T04:48:16.154Z,935.8
2016-12-02T04:48:43.913Z,935.81
2016-12-02T04:49:11.607Z,935.81
2016-12-02T04:49:39.321Z,935.77
2016-12-02T04:50:07.000Z,935.79
2016-12-02T04:50:34.782Z,935.77
2016-12-02T04:51:02.461Z,935.8
2016-12-02T04:51:30.161Z,935.78
2016-12-02T04:51:57.874Z,935.78
2016-12-02T04:52:25.567Z,935.77
2016-12-02T04:52:53.344Z,935.76
2016-12-02T04:53:21.018Z,935.73
2016-12-02T04:53:48.699Z,935.77
2016-12-02T04:54:16.391Z,935.77
2016-12-02T04:54:44.055Z,935.76
2016-12-02T04:55:11.726Z,935.74
2016-12-02T04:55:39.397Z,935.74
2016-12-02T04:56:07.063Z,935.77
2016-12-02T04:56:34.721Z,935.75
2016-12-02T04:57:02.403Z,935.73
2016-12-02T04:57:30.115Z,935.73
2016-12-02T04:57:57.822Z,935.67
2016-12-02T04:58:25.537Z,935.69
2016-12-02T04:58:53.227Z,935.68
2016-12-02T04:59:20.941Z,935.71
2016-12-02T04:59:48.717Z,935.74
2016-12-02T05:00:16.509Z,935.74
2016-12-02T05:00:44.208Z,935.71
2016-12-02T05:01:11.902Z,935.67
2016-12-02T05:01:39.578Z,935.71
2016-12-02T05:02:07.293Z,935.71
2016-12-02T05:02:35.009Z,935.7
2016-12-02T05:03:02.690Z,935.69
2016-12-02T05:03:30.342Z,935.69
2016-12-02T05:03:58.015Z,935.67
2016-12-02T05:04:25.755Z,935.69
2016-12-02T05:04:53.442Z,935.66
2016-12-02T05:05:21.351Z,935.7
2016-12-02T05:05:49.186Z,935.68
2016-12-02T05:06:16.891Z,935.67
2016-12-02T05:06:44.577Z,935.68
2016-12-02T05:07:12.265Z,935.62
2016-12-02T05:07:39.931Z,935.66
2016-12-02T05:08:07.620Z,935.62
2016-12-02T05:08:35.357Z,935.62
2016-12-02T05:09:03.044Z,935.59
2016-12-02T05:09:30.738Z,935.6
2016-12-02T05:09:58.530Z,935.6
2016-12-02T05:10:26.249Z,935.63
2016-12-02T05:10:53.928Z,935.6
2016-12-02T05:11:21.610Z,935.6
2016-12-02T05:11:49.385Z,935.6
2016-12-02T05:12:17.057Z,935.6
2016-12-02T05:12:44.759Z,935.59
2016-12-02T05:13:12.455Z,935.64
2016-12-02T05:13:40.133Z,935.61
2016-12-02T05:14:07.819Z,935.6
2016-12-02T05:14:35.556Z,935.58
2016-12-02T05:15:03.342Z,935.59
2016-12-02T05:15:31.029Z,935.55
2016-12-02T05:15:58.741Z,935.55
2016-12-02T05:16:26.456Z,935.55
2016-12-02T05:16:54.261Z,935.56
2016-12-02T05:17:21.952Z,935.52
2016-12-02T05:17:49.648Z,935.56
2016-12-02T05:18:17.371Z,935.56
2016-12-02T05:18:45.068Z,935.56
2016-12-02T05:19:12.758Z,935.56
2016-12-02T05:19:40.465Z,935.58
2016-12-02T05:20:08.138Z,935.57
2016-12-02T05:20:35.840Z,935.6
2016-12-02T05:21:03.525Z,935.6
2016-12-02T05:21:31.444Z,935.57
2016-12-02T05:21:59.146Z,935.61
2016-12-02T05:22:26.935Z,935.59
2016-12-02T05:22:54.630Z,935.59
2016-12-02T05:23:22.302Z,935.57
2016-12-02T05:23:49.991Z,935.6
2016-12-02T05:24:17.776Z,935.56
2016-12-02T05:24:45.483Z,935.55
2016-12-02T05:25:13.174Z,935.59
2016-12-02T05:25:40.862Z,935.57
2016-12-02T05:26:08.628Z,935.54
2016-12-02T05:26:36.398Z,935.54
2016-12-02T05:27:04.086Z,935.57
2016-12-02T05:27:31.810Z,935.56
2016-12-02T05:27:59.510Z,935.55
2016-12-02T05:28:27.215Z,935.55
2016-12-02T05:28:54.902Z,935.57
2016-12-02T05:29:22.589Z,935.52
2016-12-02T05:29:50.396Z,935.55
2016-12-02T05:30:18.100Z,935.57
2016-12-02T05:30:45.830Z,935.53
2016-12-02T05:31:13.501Z,935.55
2016-12-02T05:31:41.206Z,935.54
2016-12-02T05:32:08.913Z,935.55
2016-12-02T05:32:36.608Z,935.52
2016-12-02T05:33:04.302Z,935.51
2016-12-02T05:33:31.987Z,935.53
2016-12-02T05:33:59.774Z,935.56
2016-12-02T05:34:27.548Z,935.6
2016-12-02T05:34:55.394Z,935.61
2016-12-02T05:35:23.088Z,935.53
2016-12-02T05:35:50.752Z,935.58
2016-12-02T05:36:18.445Z,935.59
2016-12-02T05:36:46.110Z,935.57
2016-12-02T05:37:13.795Z,935.57
2016-12-02T05:37:41.489Z,935.57
2016-12-02T05:38:09.207Z,935.56
2016-12-02T05:38:36.921Z,935.59
2016-12-02T05:39:04.614Z,935.58
2016-12-02T05:39:32.299Z,935.61
2016-12-02T05:40:00.004Z,935.58
2016-12-02T05:40:27.720Z,935.58
2016-12-02T05:40:55.422Z,935.58
2016-12-02T05:41:23.110Z,935.61
2016-12-02T05:41:50.797Z,935.59
2016-12-02T05:42:18.493Z,935.59
2016-12-02T05:42:46.170Z,935.58
2016-12-02T05:43:13.853Z,935.54
2016-12-02T05:43:41.551Z,935.58
2016-12-02T05:44:09.342Z,935.56
2016-12-02T05:44:37.025Z,935.56
2016-12-02T05:45:04.708Z,935.52
2016-12-02T05:45:32.403Z,935.55
2016-12-02T05:46:00.096Z,935.55
2016-12-02T05:46:27.766Z,935.56
2016-12-02T05:46:55.452Z,935.56
2016-12-02T05:47:23.313Z,935.56
2016-12-02T05:47:51.094Z,935.49
2016-12-02T05:48:18.784Z,935.53